sensor_id;sensor_type;location;lat;lon;timestamp;temperature;humidity
7014;DHT22;3547;50.774;12.918;2022-12-07T00:02:52;1.70;1.00
7014;DHT22;3547;50.774;12.918;2022-12-07T02:11:42;1.50;91.80
7014;DHT22;3547;50.774;12.918;2022-12-07T02:14:09;1.60;99.90
7014;DHT22;3547;50.774;12.918;2022-12-07T02:20:17;1.60;99.90
7014;DHT22;3547;50.774;12.918;2022-12-07T02:29:25;1.40;27.40
7014;DHT22;3547;50.774;12.918;2022-12-07T02:32:23;1.30;24.40
7014;DHT22;3547;50.774;12.918;2022-12-07T03:43:34;0.70;39.40
7014;DHT22;3547;50.774;12.918;2022-12-07T03:57:05;0.60;20.80
7014;DHT22;3547;50.774;12.918;2022-12-07T03:59:32;0.70;23.90
7014;DHT22;3547;50.774;12.918;2022-12-07T04:02:05;0.70;44.30
7014;DHT22;3547;50.774;12.918;2022-12-07T04:04:33;0.70;1.00
7014;DHT22;3547;50.774;12.918;2022-12-07T04:07:00;0.60;1.00
7014;DHT22;3547;50.774;12.918;2022-12-07T04:09:27;0.70;1.00
7014;DHT22;3547;50.774;12.918;2022-12-07T04:11:54;0.70;1.00
7014;DHT22;3547;50.774;12.918;2022-12-07T04:14:20;0.80;1.00
7014;DHT22;3547;50.774;12.918;2022-12-07T04:16:51;0.80;10.00
7014;DHT22;3547;50.774;12.918;2022-12-07T04:19:20;0.80;14.60
7014;DHT22;3547;50.774;12.918;2022-12-07T04:21:49;0.90;1.00
7014;DHT22;3547;50.774;12.918;2022-12-07T04:24:15;0.80;1.00
7014;DHT22;3547;50.774;12.918;2022-12-07T04:26:43;0.80;1.00
7014;DHT22;3547;50.774;12.918;2022-12-07T04:29:10;0.70;1.00
7014;DHT22;3547;50.774;12.918;2022-12-07T04:31:36;0.70;1.00
7014;DHT22;3547;50.774;12.918;2022-12-07T04:34:03;0.70;1.00
7014;DHT22;3547;50.774;12.918;2022-12-07T04:36:30;0.70;1.00
7014;DHT22;3547;50.774;12.918;2022-12-07T04:38:56;0.60;1.00
7014;DHT22;3547;50.774;12.918;2022-12-07T04:41:23;0.70;1.00
7014;DHT22;3547;50.774;12.918;2022-12-07T04:43:57;0.60;1.00
7014;DHT22;3547;50.774;12.918;2022-12-07T04:46:24;0.60;1.00
7014;DHT22;3547;50.774;12.918;2022-12-07T04:48:52;0.50;1.00
7014;DHT22;3547;50.774;12.918;2022-12-07T04:51:21;0.50;1.00
7014;DHT22;3547;50.774;12.918;2022-12-07T04:53:48;0.50;1.00
7014;DHT22;3547;50.774;12.918;2022-12-07T04:56:16;0.60;1.00
7014;DHT22;3547;50.774;12.918;2022-12-07T04:58:45;0.50;1.00
7014;DHT22;3547;50.774;12.918;2022-12-07T05:01:12;0.50;1.00
7014;DHT22;3547;50.774;12.918;2022-12-07T05:03:39;0.60;1.00
7014;DHT22;3547;50.774;12.918;2022-12-07T05:06:06;0.60;1.00
7014;DHT22;3547;50.774;12.918;2022-12-07T05:08:33;0.70;1.00
7014;DHT22;3547;50.774;12.918;2022-12-07T05:11:00;0.70;1.00
7014;DHT22;3547;50.774;12.918;2022-12-07T05:13:26;0.70;1.00
7014;DHT22;3547;50.774;12.918;2022-12-07T05:15:53;0.80;1.00
7014;DHT22;3547;50.774;12.918;2022-12-07T05:18:19;0.80;1.00
7014;DHT22;3547;50.774;12.918;2022-12-07T05:20:45;0.80;1.00
7014;DHT22;3547;50.774;12.918;2022-12-07T05:23:12;0.90;1.00
7014;DHT22;3547;50.774;12.918;2022-12-07T05:25:38;0.90;1.00
7014;DHT22;3547;50.774;12.918;2022-12-07T05:31:27;0.80;1.00
7014;DHT22;3547;50.774;12.918;2022-12-07T05:33:54;0.80;11.70
7014;DHT22;3547;50.774;12.918;2022-12-07T05:36:20;0.80;38.30
7014;DHT22;3547;50.774;12.918;2022-12-07T05:38:47;0.80;77.20
7014;DHT22;3547;50.774;12.918;2022-12-07T05:41:17;0.90;99.90
7014;DHT22;3547;50.774;12.918;2022-12-07T05:44:04;0.90;99.90
7014;DHT22;3547;50.774;12.918;2022-12-07T05:46:31;0.90;99.90
7014;DHT22;3547;50.774;12.918;2022-12-07T05:48:57;1.00;99.90
7014;DHT22;3547;50.774;12.918;2022-12-07T05:51:24;1.00;99.90
7014;DHT22;3547;50.774;12.918;2022-12-07T13:25:22;3.30;99.90
7014;DHT22;3547;50.774;12.918;2022-12-07T13:28:10;3.30;99.90
7014;DHT22;3547;50.774;12.918;2022-12-07T13:38:50;3.40;99.90
7014;DHT22;3547;50.774;12.918;2022-12-07T13:41:21;3.50;99.90
7014;DHT22;3547;50.774;12.918;2022-12-07T13:47:00;3.50;99.90
7014;DHT22;3547;50.774;12.918;2022-12-07T13:49:46;3.50;99.90
7014;DHT22;3547;50.774;12.918;2022-12-07T13:52:44;3.40;99.90
7014;DHT22;3547;50.774;12.918;2022-12-07T13:55:18;3.30;99.90
7014;DHT22;3547;50.774;12.918;2022-12-07T13:57:48;3.30;99.90
7014;DHT22;3547;50.774;12.918;2022-12-07T14:00:24;3.30;99.90
7014;DHT22;3547;50.774;12.918;2022-12-07T14:02:59;3.30;99.90
7014;DHT22;3547;50.774;12.918;2022-12-07T14:05:30;3.30;99.90
7014;DHT22;3547;50.774;12.918;2022-12-07T14:08:00;3.30;99.90
7014;DHT22;3547;50.774;12.918;2022-12-07T14:13:33;3.30;99.90
7014;DHT22;3547;50.774;12.918;2022-12-07T14:16:02;3.30;99.90
7014;DHT22;3547;50.774;12.918;2022-12-07T14:24:26;3.30;99.90
7014;DHT22;3547;50.774;12.918;2022-12-07T14:26:55;3.30;99.90
7014;DHT22;3547;50.774;12.918;2022-12-07T14:29:32;3.30;99.90
7014;DHT22;3547;50.774;12.918;2022-12-07T14:32:22;3.20;99.90
7014;DHT22;3547;50.774;12.918;2022-12-07T14:38:10;3.30;99.90
7014;DHT22;3547;50.774;12.918;2022-12-07T14:46:50;3.10;99.90
7014;DHT22;3547;50.774;12.918;2022-12-07T14:49:31;3.20;99.90
7014;DHT22;3547;50.774;12.918;2022-12-07T15:02:50;3.00;99.90
7014;DHT22;3547;50.774;12.918;2022-12-07T15:05:24;3.00;99.90
7014;DHT22;3547;50.774;12.918;2022-12-07T15:07:51;3.00;99.90
7014;DHT22;3547;50.774;12.918;2022-12-07T15:10:39;3.00;99.90
7014;DHT22;3547;50.774;12.918;2022-12-07T15:13:07;3.00;99.90
7014;DHT22;3547;50.774;12.918;2022-12-07T15:15:53;2.90;99.90
7014;DHT22;3547;50.774;12.918;2022-12-07T15:18:47;2.80;99.90
7014;DHT22;3547;50.774;12.918;2022-12-07T15:21:14;2.70;99.90
7014;DHT22;3547;50.774;12.918;2022-12-07T15:23:48;2.70;99.90
7014;DHT22;3547;50.774;12.918;2022-12-07T15:41:53;2.50;99.90
7014;DHT22;3547;50.774;12.918;2022-12-07T15:47:44;2.50;99.90
7014;DHT22;3547;50.774;12.918;2022-12-07T15:50:13;2.40;99.90
7014;DHT22;3547;50.774;12.918;2022-12-07T15:55:40;2.50;99.90
7014;DHT22;3547;50.774;12.918;2022-12-07T16:01:22;2.50;99.90
7014;DHT22;3547;50.774;12.918;2022-12-07T16:03:54;2.50;99.90
7014;DHT22;3547;50.774;12.918;2022-12-07T16:06:23;2.50;99.90
7014;DHT22;3547;50.774;12.918;2022-12-07T16:08:50;2.50;99.90
7014;DHT22;3547;50.774;12.918;2022-12-07T16:11:16;2.50;99.90
7014;DHT22;3547;50.774;12.918;2022-12-07T16:13:43;2.60;99.90
7014;DHT22;3547;50.774;12.918;2022-12-07T16:16:16;2.50;99.90
7014;DHT22;3547;50.774;12.918;2022-12-07T16:18:44;2.50;99.90
7014;DHT22;3547;50.774;12.918;2022-12-07T16:21:11;2.60;99.90
7014;DHT22;3547;50.774;12.918;2022-12-07T16:23:37;2.50;97.70
7014;DHT22;3547;50.774;12.918;2022-12-07T16:26:15;2.50;91.60
7014;DHT22;3547;50.774;12.918;2022-12-07T16:28:43;2.50;94.00
7014;DHT22;3547;50.774;12.918;2022-12-07T16:31:14;2.50;90.30
7014;DHT22;3547;50.774;12.918;2022-12-07T16:33:41;2.50;82.80
7014;DHT22;3547;50.774;12.918;2022-12-07T16:36:10;2.40;79.10
7014;DHT22;3547;50.774;12.918;2022-12-07T16:38:37;2.50;92.20
7014;DHT22;3547;50.774;12.918;2022-12-07T16:41:07;2.40;90.60
7014;DHT22;3547;50.774;12.918;2022-12-07T16:43:44;2.40;80.10
7014;DHT22;3547;50.774;12.918;2022-12-07T16:46:12;2.40;91.20
7014;DHT22;3547;50.774;12.918;2022-12-07T16:48:50;2.40;68.50
7014;DHT22;3547;50.774;12.918;2022-12-07T16:51:18;2.40;93.30
7014;DHT22;3547;50.774;12.918;2022-12-07T16:53:47;2.40;92.90
7014;DHT22;3547;50.774;12.918;2022-12-07T16:56:17;2.50;93.90
7014;DHT22;3547;50.774;12.918;2022-12-07T16:58:44;2.50;91.50
7014;DHT22;3547;50.774;12.918;2022-12-07T17:01:20;2.50;97.40
7014;DHT22;3547;50.774;12.918;2022-12-07T17:03:51;2.50;91.70
7014;DHT22;3547;50.774;12.918;2022-12-07T17:06:23;2.60;98.20
7014;DHT22;3547;50.774;12.918;2022-12-07T17:08:51;2.50;70.70
7014;DHT22;3547;50.774;12.918;2022-12-07T17:11:24;2.50;92.20
7014;DHT22;3547;50.774;12.918;2022-12-07T17:13:51;2.50;86.30
7014;DHT22;3547;50.774;12.918;2022-12-07T17:16:36;2.50;99.90
7014;DHT22;3547;50.774;12.918;2022-12-07T17:19:13;2.40;82.90
7014;DHT22;3547;50.774;12.918;2022-12-07T17:21:41;2.50;97.60
7014;DHT22;3547;50.774;12.918;2022-12-07T17:24:10;2.50;98.90
7014;DHT22;3547;50.774;12.918;2022-12-07T17:26:37;2.40;91.40
7014;DHT22;3547;50.774;12.918;2022-12-07T17:29:05;2.40;94.00
7014;DHT22;3547;50.774;12.918;2022-12-07T17:31:32;2.30;91.20
7014;DHT22;3547;50.774;12.918;2022-12-07T17:33:59;2.30;92.30
7014;DHT22;3547;50.774;12.918;2022-12-07T17:36:28;2.30;83.00
7014;DHT22;3547;50.774;12.918;2022-12-07T17:38:55;2.20;83.60
7014;DHT22;3547;50.774;12.918;2022-12-07T17:41:26;2.20;76.50
7014;DHT22;3547;50.774;12.918;2022-12-07T17:44:17;2.20;89.00
7014;DHT22;3547;50.774;12.918;2022-12-07T17:46:47;2.20;85.10
7014;DHT22;3547;50.774;12.918;2022-12-07T17:49:14;2.20;91.40
7014;DHT22;3547;50.774;12.918;2022-12-07T17:51:41;2.20;90.30
7014;DHT22;3547;50.774;12.918;2022-12-07T17:54:27;2.20;94.10
7014;DHT22;3547;50.774;12.918;2022-12-07T17:56:54;2.20;87.10
7014;DHT22;3547;50.774;12.918;2022-12-07T17:59:20;2.30;94.00
7014;DHT22;3547;50.774;12.918;2022-12-07T18:01:46;2.30;91.90
7014;DHT22;3547;50.774;12.918;2022-12-07T18:04:12;2.30;94.10
7014;DHT22;3547;50.774;12.918;2022-12-07T18:06:39;2.40;98.40
7014;DHT22;3547;50.774;12.918;2022-12-07T18:14:23;2.40;92.80
7014;DHT22;3547;50.774;12.918;2022-12-07T18:16:50;2.50;97.90
7014;DHT22;3547;50.774;12.918;2022-12-07T18:19:17;2.50;96.10
7014;DHT22;3547;50.774;12.918;2022-12-07T18:21:44;2.50;94.10
7014;DHT22;3547;50.774;12.918;2022-12-07T18:24:12;2.50;96.50
7014;DHT22;3547;50.774;12.918;2022-12-07T18:26:39;2.40;95.90
7014;DHT22;3547;50.774;12.918;2022-12-07T18:29:06;2.50;99.90
7014;DHT22;3547;50.774;12.918;2022-12-07T18:31:34;2.50;97.50
7014;DHT22;3547;50.774;12.918;2022-12-07T18:34:06;2.40;93.00
7014;DHT22;3547;50.774;12.918;2022-12-07T18:36:38;2.40;91.80
7014;DHT22;3547;50.774;12.918;2022-12-07T18:39:05;2.40;99.20
7014;DHT22;3547;50.774;12.918;2022-12-07T18:41:31;2.40;93.00
7014;DHT22;3547;50.774;12.918;2022-12-07T18:43:58;2.40;98.40
7014;DHT22;3547;50.774;12.918;2022-12-07T18:46:25;2.40;97.00
7014;DHT22;3547;50.774;12.918;2022-12-07T18:48:52;2.40;95.80
7014;DHT22;3547;50.774;12.918;2022-12-07T18:51:29;2.40;95.70
7014;DHT22;3547;50.774;12.918;2022-12-07T18:53:56;2.40;92.00
7014;DHT22;3547;50.774;12.918;2022-12-07T18:56:24;2.40;92.70
7014;DHT22;3547;50.774;12.918;2022-12-07T18:58:56;2.40;97.80
7014;DHT22;3547;50.774;12.918;2022-12-07T19:01:42;2.50;99.90
7014;DHT22;3547;50.774;12.918;2022-12-07T19:04:09;2.50;99.90
7014;DHT22;3547;50.774;12.918;2022-12-07T19:06:36;2.50;99.90
7014;DHT22;3547;50.774;12.918;2022-12-07T19:09:03;2.40;90.70
7014;DHT22;3547;50.774;12.918;2022-12-07T19:11:31;2.40;95.50
7014;DHT22;3547;50.774;12.918;2022-12-07T19:14:23;2.30;93.80
7014;DHT22;3547;50.774;12.918;2022-12-07T19:16:53;2.30;94.00
7014;DHT22;3547;50.774;12.918;2022-12-07T19:19:21;2.30;91.90
7014;DHT22;3547;50.774;12.918;2022-12-07T19:21:48;2.30;91.10
7014;DHT22;3547;50.774;12.918;2022-12-07T19:24:15;2.30;99.90
7014;DHT22;3547;50.774;12.918;2022-12-07T19:26:47;2.30;99.10
7014;DHT22;3547;50.774;12.918;2022-12-07T19:29:15;2.40;92.30
7014;DHT22;3547;50.774;12.918;2022-12-07T19:31:43;2.40;89.90
7014;DHT22;3547;50.774;12.918;2022-12-07T19:34:11;2.40;87.60
7014;DHT22;3547;50.774;12.918;2022-12-07T19:36:38;2.40;92.40
7014;DHT22;3547;50.774;12.918;2022-12-07T19:39:06;2.40;86.60
7014;DHT22;3547;50.774;12.918;2022-12-07T19:41:35;2.50;99.90
7014;DHT22;3547;50.774;12.918;2022-12-07T19:47:27;2.40;87.70
7014;DHT22;3547;50.774;12.918;2022-12-07T19:49:53;2.40;83.30
7014;DHT22;3547;50.774;12.918;2022-12-07T19:52:35;2.40;77.70
7014;DHT22;3547;50.774;12.918;2022-12-07T19:55:06;2.40;91.10
7014;DHT22;3547;50.774;12.918;2022-12-07T19:57:35;2.50;94.30
7014;DHT22;3547;50.774;12.918;2022-12-07T20:00:03;2.40;99.90
7014;DHT22;3547;50.774;12.918;2022-12-07T20:02:30;2.40;91.20
7014;DHT22;3547;50.774;12.918;2022-12-07T20:04:56;2.40;95.30
7014;DHT22;3547;50.774;12.918;2022-12-07T20:07:24;2.40;99.90
7014;DHT22;3547;50.774;12.918;2022-12-07T20:09:50;2.40;99.90
7014;DHT22;3547;50.774;12.918;2022-12-07T20:12:17;2.30;90.20
7014;DHT22;3547;50.774;12.918;2022-12-07T20:15:04;2.30;79.20
7014;DHT22;3547;50.774;12.918;2022-12-07T20:17:32;2.40;94.80
7014;DHT22;3547;50.774;12.918;2022-12-07T20:20:08;2.40;88.30
7014;DHT22;3547;50.774;12.918;2022-12-07T20:22:34;2.40;83.80
7014;DHT22;3547;50.774;12.918;2022-12-07T20:25:03;2.40;90.60
7014;DHT22;3547;50.774;12.918;2022-12-07T20:27:31;2.50;95.90
7014;DHT22;3547;50.774;12.918;2022-12-07T20:29:57;2.40;79.50
7014;DHT22;3547;50.774;12.918;2022-12-07T20:32:23;2.50;96.80
7014;DHT22;3547;50.774;12.918;2022-12-07T20:34:50;2.60;90.60
7014;DHT22;3547;50.774;12.918;2022-12-07T20:37:16;2.50;82.20
7014;DHT22;3547;50.774;12.918;2022-12-07T20:39:42;2.50;88.00
7014;DHT22;3547;50.774;12.918;2022-12-07T20:42:10;2.50;91.10
7014;DHT22;3547;50.774;12.918;2022-12-07T20:44:54;2.60;98.10
7014;DHT22;3547;50.774;12.918;2022-12-07T20:47:21;2.60;98.80
7014;DHT22;3547;50.774;12.918;2022-12-07T20:49:47;2.60;85.40
7014;DHT22;3547;50.774;12.918;2022-12-07T20:52:13;2.60;94.30
7014;DHT22;3547;50.774;12.918;2022-12-07T20:54:39;2.70;99.90
7014;DHT22;3547;50.774;12.918;2022-12-07T20:57:06;2.70;93.20
7014;DHT22;3547;50.774;12.918;2022-12-07T20:59:32;2.70;90.40
7014;DHT22;3547;50.774;12.918;2022-12-07T21:01:59;2.70;90.30
7014;DHT22;3547;50.774;12.918;2022-12-07T21:04:25;2.70;99.80
7014;DHT22;3547;50.774;12.918;2022-12-07T21:06:51;2.80;97.50
7014;DHT22;3547;50.774;12.918;2022-12-07T21:09:17;2.70;99.90
7014;DHT22;3547;50.774;12.918;2022-12-07T21:11:45;2.70;99.30
7014;DHT22;3547;50.774;12.918;2022-12-07T21:14:11;2.70;96.90
7014;DHT22;3547;50.774;12.918;2022-12-07T21:16:37;2.60;88.60
7014;DHT22;3547;50.774;12.918;2022-12-07T21:19:04;2.60;97.30
7014;DHT22;3547;50.774;12.918;2022-12-07T21:21:32;2.60;99.90
7014;DHT22;3547;50.774;12.918;2022-12-07T21:23:58;2.60;95.20
7014;DHT22;3547;50.774;12.918;2022-12-07T21:26:26;2.60;99.90
7014;DHT22;3547;50.774;12.918;2022-12-07T21:28:53;2.60;97.80
7014;DHT22;3547;50.774;12.918;2022-12-07T21:31:19;2.60;92.00
7014;DHT22;3547;50.774;12.918;2022-12-07T21:33:46;2.60;98.70
7014;DHT22;3547;50.774;12.918;2022-12-07T21:36:18;2.70;99.90
7014;DHT22;3547;50.774;12.918;2022-12-07T21:38:45;2.60;93.50
7014;DHT22;3547;50.774;12.918;2022-12-07T21:41:19;2.60;92.30
7014;DHT22;3547;50.774;12.918;2022-12-07T21:43:46;2.60;94.00
7014;DHT22;3547;50.774;12.918;2022-12-07T21:46:13;2.60;99.40
7014;DHT22;3547;50.774;12.918;2022-12-07T21:48:40;2.60;97.10
7014;DHT22;3547;50.774;12.918;2022-12-07T21:51:10;2.60;94.40
7014;DHT22;3547;50.774;12.918;2022-12-07T21:53:40;2.50;84.60
7014;DHT22;3547;50.774;12.918;2022-12-07T21:56:22;2.50;83.20
7014;DHT22;3547;50.774;12.918;2022-12-07T21:58:51;2.40;86.30
7014;DHT22;3547;50.774;12.918;2022-12-07T22:01:23;2.40;90.00
7014;DHT22;3547;50.774;12.918;2022-12-07T22:03:52;2.50;96.00
7014;DHT22;3547;50.774;12.918;2022-12-07T22:06:21;2.40;94.00
7014;DHT22;3547;50.774;12.918;2022-12-07T22:08:48;2.40;93.80
7014;DHT22;3547;50.774;12.918;2022-12-07T22:11:15;2.50;94.00
7014;DHT22;3547;50.774;12.918;2022-12-07T22:13:43;2.50;93.30
7014;DHT22;3547;50.774;12.918;2022-12-07T22:16:28;2.50;99.90
7014;DHT22;3547;50.774;12.918;2022-12-07T22:18:55;2.60;99.80
7014;DHT22;3547;50.774;12.918;2022-12-07T22:21:24;2.60;99.90
7014;DHT22;3547;50.774;12.918;2022-12-07T22:23:51;2.60;92.60
7014;DHT22;3547;50.774;12.918;2022-12-07T22:26:17;2.50;79.40
7014;DHT22;3547;50.774;12.918;2022-12-07T22:28:44;2.50;97.70
7014;DHT22;3547;50.774;12.918;2022-12-07T22:31:13;2.50;95.50
7014;DHT22;3547;50.774;12.918;2022-12-07T22:33:39;2.60;97.90
7014;DHT22;3547;50.774;12.918;2022-12-07T22:36:06;2.50;94.30
7014;DHT22;3547;50.774;12.918;2022-12-07T22:38:33;2.60;99.90
7014;DHT22;3547;50.774;12.918;2022-12-07T22:41:06;2.60;99.90
7014;DHT22;3547;50.774;12.918;2022-12-07T22:43:32;2.60;99.90
7014;DHT22;3547;50.774;12.918;2022-12-07T22:45:59;2.50;91.60
7014;DHT22;3547;50.774;12.918;2022-12-07T22:48:26;2.50;87.50
7014;DHT22;3547;50.774;12.918;2022-12-07T22:50:53;2.60;99.90
7014;DHT22;3547;50.774;12.918;2022-12-07T22:53:22;2.60;96.40
7014;DHT22;3547;50.774;12.918;2022-12-07T22:55:49;2.50;85.40
7014;DHT22;3547;50.774;12.918;2022-12-07T22:58:17;2.50;91.10
7014;DHT22;3547;50.774;12.918;2022-12-07T23:00:43;2.40;93.90
7014;DHT22;3547;50.774;12.918;2022-12-07T23:03:10;2.40;90.90
7014;DHT22;3547;50.774;12.918;2022-12-07T23:05:44;2.50;99.90
7014;DHT22;3547;50.774;12.918;2022-12-07T23:08:11;2.60;99.90
7014;DHT22;3547;50.774;12.918;2022-12-07T23:10:42;2.60;90.00
7014;DHT22;3547;50.774;12.918;2022-12-07T23:13:11;2.50;84.00
7014;DHT22;3547;50.774;12.918;2022-12-07T23:15:56;2.50;95.40
7014;DHT22;3547;50.774;12.918;2022-12-07T23:18:23;2.50;91.70
7014;DHT22;3547;50.774;12.918;2022-12-07T23:20:49;2.50;95.10
7014;DHT22;3547;50.774;12.918;2022-12-07T23:23:15;2.50;95.50
7014;DHT22;3547;50.774;12.918;2022-12-07T23:25:41;2.50;96.80
7014;DHT22;3547;50.774;12.918;2022-12-07T23:28:08;2.60;99.10
7014;DHT22;3547;50.774;12.918;2022-12-07T23:30:34;2.50;89.50
7014;DHT22;3547;50.774;12.918;2022-12-07T23:33:00;2.50;97.20
7014;DHT22;3547;50.774;12.918;2022-12-07T23:35:27;2.50;96.40
7014;DHT22;3547;50.774;12.918;2022-12-07T23:37:53;2.50;91.80
7014;DHT22;3547;50.774;12.918;2022-12-07T23:40:20;2.50;92.90
7014;DHT22;3547;50.774;12.918;2022-12-07T23:42:46;2.50;96.60
7014;DHT22;3547;50.774;12.918;2022-12-07T23:45:12;2.50;96.70
7014;DHT22;3547;50.774;12.918;2022-12-07T23:47:39;2.60;97.60
7014;DHT22;3547;50.774;12.918;2022-12-07T23:50:07;2.50;91.80
7014;DHT22;3547;50.774;12.918;2022-12-07T23:52:35;2.50;73.80
7014;DHT22;3547;50.774;12.918;2022-12-07T23:55:11;2.40;70.60
7014;DHT22;3547;50.774;12.918;2022-12-07T23:57:37;2.30;87.70
